메인 페이지
METAR-TAF:

METAR-TAF

공항 :

Resolute, 누나부트, 캐나다

위도: 74-43N, 경도: 094-59W, 고도: 67m

현재 날씨관측

예보는 13분 전, 19:00시(UTC)에 발표되었습니다.
동남동10kt
온도 -27°C
습도 69%
기압 1020 hPa
시정: 24.1km
고도 3000ft 상공 구름 조금
빙정

METAR: CYRB 191900Z 12010KT 15SM IC FEW030 M27/M31 A3013 RMK SC1 SC TR PCPN VRY LGT SLP218

시각: 13:13 (19:13 UTC)

예보

예보는 1 시간 27분 전, 17:46시(UTC)에 발표되었습니다.
예보 대상 시간: 19일 18시부터 20일 18시까지 (UTC)
동남동10kt
시정: 10km
맑음
빙정
전환 중
19일 22시부터 19일 24시까지 (UTC)
5kt

TAF: CYRB 191746Z 1918/2018 12010KT P6SM IC SKC BECMG 1922/1924 10005KT RMK NXT FCST BY 200000Z

4,000개 이상의 공항 관측 자료 및 예보 (METAR 및 TAF 보고).

지도상에서 검색 가능한 기상관측소가 노란 점과 빨간 점으로 표시되어 있습니다.

기상관측소 명을 보려면 표시 위로 마우스를 이동하세요.

날씨 관측과 예보를 보려면 클릭하세요.

지도 변경 : 확대하려면 엑스 표시가 있는 녹색 버튼, 축소하려면 빼기 표시가 있는 녹색 버튼, 다음 페이지의 지도를 보려면 녹색 화살표를 클릭하세요.


METAR-TAF: